Time;durP1;ratioP1;P1;durP2;ratioP2;P2;SDS_P1;SDS_P2;PMS_P1;PMS_P2;Temp;Humidity;BMP_temperature;BMP_pressure;BME280_temperature;BME280_humidity;BME280_pressure;Samples;Min_cycle;Max_cycle;Signal;HPM_P1;HPM_P2
2022/10/09 00:01:27;;;;;;;5.63;4.88;;;;;;;;;;5050388;28;20534;-64
2022/10/09 00:03:55;;;;;;;8.45;5.30;;;;;;;;;;5052190;28;20045;-62
2022/10/09 00:06:30;;;;;;;7.53;5.32;;;;;;;;;;5051777;28;20577;-63
2022/10/09 00:08:58;;;;;;;10.23;5.05;;;;;;;;;;5051807;28;20045;-63
2022/10/09 00:11:26;;;;;;;8.75;5.55;;;;;;;;;;5051624;28;20083;-64
2022/10/09 00:13:53;;;;;;;10.23;5.43;;;;;;;;;;5051195;28;20454;-64
2022/10/09 00:16:21;;;;;;;10.27;5.43;;;;;;;;;;5050449;28;20085;-64
2022/10/09 00:18:48;;;;;;;9.68;5.43;;;;;;;;;;5051611;28;20048;-63
2022/10/09 00:21:24;;;;;;;6.95;5.70;;;;;;;;;;5051705;28;20090;-63
2022/10/09 00:23:53;;;;;;;10.85;5.15;;;;;;;;;;5051377;28;20057;-64
2022/10/09 00:26:20;;;;;;;11.98;5.22;;;;;;;;;;5051541;28;20048;-63
2022/10/09 00:28:47;;;;;;;10.30;5.38;;;;;;;;;;5051348;28;20049;-62
2022/10/09 00:31:14;;;;;;;7.60;5.80;;;;;;;;;;5051554;28;20083;-64
2022/10/09 00:33:41;;;;;;;9.23;6.35;;;;;;;;;;5051512;28;20060;-63
2022/10/09 00:36:13;;;;;;;9.00;5.97;;;;;;;;;;5051975;28;20053;-63
2022/10/09 00:38:40;;;;;;;10.27;6.70;;;;;;;;;;5051205;28;20053;-63
2022/10/09 00:41:07;;;;;;;8.82;6.07;;;;;;;;;;5050407;28;20095;-64
2022/10/09 00:43:46;;;;;;;8.02;6.47;;;;;;;;;;5051751;28;20478;-62
2022/10/09 00:46:26;;;;;;;10.98;6.28;;;;;;;;;;5051246;28;20190;-64
2022/10/09 00:49:13;;;;;;;9.45;6.70;;;;;;;;;;5049760;28;20053;-64
2022/10/09 00:51:40;;;;;;;7.65;6.47;;;;;;;;;;5051528;28;20110;-63
2022/10/09 00:54:08;;;;;;;9.60;6.05;;;;;;;;;;5051239;28;20045;-63
2022/10/09 00:56:35;;;;;;;11.25;6.30;;;;;;;;;;5050111;28;20057;-63
2022/10/09 00:59:02;;;;;;;9.85;6.05;;;;;;;;;;5051067;28;20079;-63
2022/10/09 01:01:29;;;;;;;11.65;6.35;;;;;;;;;;5017184;28;20055;-63
2022/10/09 01:03:56;;;;;;;11.77;6.38;;;;;;;;;;5051168;28;20094;-63
2022/10/09 01:06:57;;;;;;;8.55;5.45;;;;;;;;;;5051249;28;20508;-62
2022/10/09 01:09:47;;;;;;;6.72;5.88;;;;;;;;;;5049640;28;20080;-63
2022/10/09 01:12:29;;;;;;;5.78;4.75;;;;;;;;;;5050091;28;20052;-63
2022/10/09 01:15:03;;;;;;;9.60;5.45;;;;;;;;;;5054902;28;20091;-63
2022/10/09 01:18:03;;;;;;;13.07;5.82;;;;;;;;;;5037988;28;20052;-63
2022/10/09 01:20:48;;;;;;;7.93;5.32;;;;;;;;;;5039215;28;20076;-63
2022/10/09 01:23:51;;;;;;;10.50;4.60;;;;;;;;;;5054648;28;20068;-64
2022/10/09 01:26:44;;;;;;;6.25;4.20;;;;;;;;;;5053730;28;20126;-63
2022/10/09 01:29:11;;;;;;;7.33;4.73;;;;;;;;;;5053366;28;20049;-63
2022/10/09 01:31:42;;;;;;;6.28;5.10;;;;;;;;;;5053657;28;20076;-64
2022/10/09 01:34:10;;;;;;;6.57;4.97;;;;;;;;;;5037106;28;20045;-63
2022/10/09 01:36:37;;;;;;;8.85;5.05;;;;;;;;;;5053256;28;20048;-63
2022/10/09 01:39:03;;;;;;;8.68;5.05;;;;;;;;;;5054641;28;20079;-63
2022/10/09 01:41:30;;;;;;;6.15;4.60;;;;;;;;;;5036999;28;20500;-64
2022/10/09 01:43:57;;;;;;;9.70;5.55;;;;;;;;;;5054401;28;20512;-63
2022/10/09 01:46:30;;;;;;;7.03;4.93;;;;;;;;;;5054445;28;20072;-62
2022/10/09 01:49:02;;;;;;;7.72;5.10;;;;;;;;;;5037373;28;20056;-63
2022/10/09 01:51:31;;;;;;;9.82;5.13;;;;;;;;;;5054162;28;20056;-63
2022/10/09 01:53:59;;;;;;;8.35;4.88;;;;;;;;;;5037004;28;20479;-63
2022/10/09 01:56:26;;;;;;;10.95;5.05;;;;;;;;;;5053151;28;20503;-62
2022/10/09 01:58:57;;;;;;;14.38;5.45;;;;;;;;;;5052918;28;20080;-64
2022/10/09 02:01:29;;;;;;;9.13;5.20;;;;;;;;;;5052984;28;20071;-61
2022/10/09 02:03:57;;;;;;;8.70;4.95;;;;;;;;;;5036996;28;20051;-64
2022/10/09 02:06:24;;;;;;;8.43;5.10;;;;;;;;;;5052926;28;20487;-63
2022/10/09 02:08:51;;;;;;;7.13;4.70;;;;;;;;;;5052764;28;20118;-62
2022/10/09 02:11:17;;;;;;;7.03;5.68;;;;;;;;;;5054005;28;20171;-62
2022/10/09 02:13:45;;;;;;;10.75;5.35;;;;;;;;;;5051951;28;20053;-61
2022/10/09 02:16:18;;;;;;;7.10;5.15;;;;;;;;;;5036918;28;20481;-62
2022/10/09 02:18:45;;;;;;;;;;;;;;;;;;5054521;28;20075;-62
2022/10/09 02:21:16;;;;;;;8.50;4.82;;;;;;;;;;5052682;28;19925;-62
2022/10/09 02:23:42;;;;;;;7.82;5.18;;;;;;;;;;5052349;28;20053;-62
2022/10/09 02:26:09;;;;;;;7.65;5.53;;;;;;;;;;5052569;28;20080;-63
2022/10/09 02:28:36;;;;;;;6.70;5.00;;;;;;;;;;5053443;28;20106;-62
2022/10/09 02:31:10;;;;;;;8.18;5.28;;;;;;;;;;5052406;28;20428;-64
2022/10/09 02:33:37;;;;;;;7.90;4.90;;;;;;;;;;5036585;28;20544;-65
2022/10/09 02:36:03;;;;;;;8.15;4.78;;;;;;;;;;5053661;28;20056;-64
2022/10/09 02:38:30;;;;;;;8.02;5.38;;;;;;;;;;5053460;28;20053;-65
2022/10/09 02:40:58;;;;;;;10.05;6.13;;;;;;;;;;5052240;28;20049;-63
2022/10/09 02:43:25;;;;;;;9.48;6.35;;;;;;;;;;5053286;28;20056;-63
2022/10/09 02:45:51;;;;;;;10.27;6.30;;;;;;;;;;5052075;28;20088;-63
2022/10/09 02:48:18;;;;;;;8.93;6.05;;;;;;;;;;5052066;28;20049;-63
2022/10/09 02:50:45;;;;;;;15.05;6.90;;;;;;;;;;5052079;28;20393;-65
2022/10/09 02:53:12;;;;;;;13.82;6.55;;;;;;;;;;5053184;28;20103;-63
2022/10/09 02:55:39;;;;;;;11.23;6.32;;;;;;;;;;5053132;28;20559;-63
2022/10/09 02:58:05;;;;;;;11.65;6.82;;;;;;;;;;5053081;28;20074;-63
2022/10/09 03:00:32;;;;;;;14.88;6.70;;;;;;;;;;5053137;28;20577;-63
2022/10/09 03:02:59;;;;;;;12.38;6.72;;;;;;;;;;5053279;28;20083;-64
2022/10/09 03:05:25;;;;;;;13.30;7.90;;;;;;;;;;5053078;28;20055;-62
2022/10/09 03:07:52;;;;;;;14.73;8.48;;;;;;;;;;5052731;28;20053;-62
2022/10/09 03:10:19;;;;;;;18.13;9.68;;;;;;;;;;5052678;28;20393;-62
2022/10/09 03:12:46;;;;;;;18.30;8.65;;;;;;;;;;5052124;28;20053;-63
2022/10/09 03:15:13;;;;;;;11.48;7.78;;;;;;;;;;5052890;28;20049;-64
2022/10/09 03:17:40;;;;;;;12.20;7.28;;;;;;;;;;5052594;28;20053;-65
2022/10/09 03:20:07;;;;;;;13.20;6.88;;;;;;;;;;5052688;28;20511;-63
2022/10/09 03:22:33;;;;;;;13.00;7.47;;;;;;;;;;5051466;28;20463;-62
2022/10/09 03:25:00;;;;;;;10.68;7.60;;;;;;;;;;5052904;28;20100;-64
2022/10/09 03:27:27;;;;;;;9.13;6.28;;;;;;;;;;5052702;28;20056;-63
2022/10/09 03:29:53;;;;;;;9.35;6.13;;;;;;;;;;5052069;28;20488;-62
2022/10/09 03:32:20;;;;;;;11.73;6.55;;;;;;;;;;5052603;28;20053;-62
2022/10/09 03:34:46;;;;;;;10.15;6.20;;;;;;;;;;5051059;28;20049;-63
2022/10/09 03:37:13;;;;;;;9.98;6.43;;;;;;;;;;5051860;28;20524;-62
2022/10/09 03:39:40;;;;;;;8.32;5.88;;;;;;;;;;5052001;28;20049;-63
2022/10/09 03:42:06;;;;;;;7.20;5.38;;;;;;;;;;5052783;28;20126;-64
2022/10/09 03:44:33;;;;;;;8.10;5.45;;;;;;;;;;5052282;28;20090;-64
2022/10/09 03:47:00;;;;;;;9.30;5.50;;;;;;;;;;5052391;28;20106;-62
2022/10/09 03:49:26;;;;;;;9.50;6.13;;;;;;;;;;5051680;28;20561;-62
2022/10/09 03:51:53;;;;;;;7.25;5.10;;;;;;;;;;5051954;28;20075;-63
2022/10/09 03:54:19;;;;;;;11.18;6.70;;;;;;;;;;5051815;28;20451;-62
2022/10/09 03:56:46;;;;;;;8.10;5.90;;;;;;;;;;5052200;28;20053;-63
2022/10/09 03:59:13;;;;;;;9.45;5.80;;;;;;;;;;5051775;28;20048;-63
2022/10/09 04:01:39;;;;;;;8.75;5.65;;;;;;;;;;5052178;28;20044;-63
2022/10/09 04:04:06;;;;;;;6.78;5.60;;;;;;;;;;5051861;28;20079;-63
2022/10/09 04:06:32;;;;;;;8.55;5.75;;;;;;;;;;5051820;28;20466;-63
2022/10/09 04:09:00;;;;;;;7.32;5.35;;;;;;;;;;5051634;28;20106;-64
2022/10/09 04:11:26;;;;;;;6.13;4.70;;;;;;;;;;5051842;28;20052;-63
2022/10/09 04:13:53;;;;;;;8.93;6.00;;;;;;;;;;5051332;28;20103;-63
2022/10/09 04:16:19;;;;;;;5.97;5.13;;;;;;;;;;5051882;28;20044;-63
2022/10/09 04:18:46;;;;;;;10.70;5.30;;;;;;;;;;5051586;28;20132;-63
2022/10/09 04:21:13;;;;;;;8.65;5.13;;;;;;;;;;5051628;28;20099;-63
2022/10/09 04:23:40;;;;;;;8.32;5.63;;;;;;;;;;5051658;28;20110;-63
2022/10/09 04:26:06;;;;;;;8.27;5.75;;;;;;;;;;5051607;28;20524;-63
2022/10/09 04:28:33;;;;;;;8.05;5.65;;;;;;;;;;5051589;28;20067;-63
2022/10/09 04:31:00;;;;;;;7.13;4.80;;;;;;;;;;5051542;28;20051;-64
2022/10/09 04:33:27;;;;;;;6.75;5.32;;;;;;;;;;5050181;28;20049;-64
2022/10/09 04:35:54;;;;;;;9.18;5.93;;;;;;;;;;5051393;28;20120;-64
2022/10/09 04:38:21;;;;;;;8.68;5.50;;;;;;;;;;5051480;28;20048;-64
2022/10/09 04:41:01;;;;;;;13.90;6.55;;;;;;;;;;5051593;28;20045;-62
2022/10/09 04:43:27;;;;;;;9.90;5.80;;;;;;;;;;5051348;28;20053;-63
2022/10/09 04:45:54;;;;;;;8.27;5.97;;;;;;;;;;5051493;28;20053;-65
2022/10/09 04:48:21;;;;;;;7.22;5.75;;;;;;;;;;5053152;28;20416;-62
2022/10/09 04:50:48;;;;;;;10.07;6.00;;;;;;;;;;5055455;28;20458;-63
2022/10/09 04:53:15;;;;;;;11.27;6.10;;;;;;;;;;5055977;28;20486;-65
2022/10/09 04:55:42;;;;;;;11.23;7.13;;;;;;;;;;5055763;28;20466;-64
2022/10/09 04:58:09;;;;;;;8.98;6.28;;;;;;;;;;5055337;28;20052;-65
2022/10/09 05:00:42;;;;;;;11.27;6.43;;;;;;;;;;5055335;28;20053;-65
2022/10/09 05:03:09;;;;;;;7.70;5.28;;;;;;;;;;5055246;28;20570;-65
2022/10/09 05:05:36;;;;;;;6.72;5.95;;;;;;;;;;5054470;28;20099;-63
2022/10/09 05:08:03;;;;;;;9.50;6.18;;;;;;;;;;5055155;28;20052;-65
2022/10/09 05:10:32;;;;;;;7.28;6.00;;;;;;;;;;5055059;28;20045;-64
2022/10/09 05:13:00;;;;;;;8.60;6.13;;;;;;;;;;5054599;28;20479;-64
2022/10/09 05:15:26;;;;;;;13.48;6.78;;;;;;;;;;5055172;28;20045;-64
2022/10/09 05:17:53;;;;;;;11.40;6.60;;;;;;;;;;5054841;28;20048;-65
2022/10/09 05:20:19;;;;;;;8.45;6.10;;;;;;;;;;5055209;28;20202;-65
2022/10/09 05:22:46;;;;;;;9.52;6.10;;;;;;;;;;5055173;28;20052;-64
2022/10/09 05:25:14;;;;;;;9.02;6.15;;;;;;;;;;5054769;28;20049;-64
2022/10/09 05:27:40;;;;;;;9.98;5.60;;;;;;;;;;5054960;28;20057;-64
2022/10/09 05:30:08;;;;;;;11.82;6.03;;;;;;;;;;5054353;28;20053;-65
2022/10/09 05:32:34;;;;;;;8.93;5.35;;;;;;;;;;5054957;28;20049;-64
2022/10/09 05:35:03;;;;;;;8.30;6.10;;;;;;;;;;5054790;28;20052;-65
2022/10/09 05:37:29;;;;;;;7.28;5.32;;;;;;;;;;5054571;28;20049;-65
2022/10/09 05:39:56;;;;;;;6.55;5.28;;;;;;;;;;5054430;28;20052;-64
2022/10/09 05:42:23;;;;;;;9.05;5.85;;;;;;;;;;5054425;28;20064;-64
2022/10/09 05:44:49;;;;;;;6.88;5.38;;;;;;;;;;5054540;28;20481;-64
2022/10/09 05:47:17;;;;;;;12.40;5.57;;;;;;;;;;5054520;28;20053;-64
2022/10/09 05:49:44;;;;;;;9.75;5.40;;;;;;;;;;5054324;28;20095;-64
2022/10/09 05:52:10;;;;;;;7.03;5.25;;;;;;;;;;5054498;28;20041;-64
2022/10/09 05:54:37;;;;;;;7.05;5.28;;;;;;;;;;5053137;28;20076;-64
2022/10/09 05:57:04;;;;;;;9.68;5.47;;;;;;;;;;5054214;28;20099;-65
2022/10/09 05:59:30;;;;;;;9.57;6.03;;;;;;;;;;5053388;28;20080;-65
2022/10/09 06:01:57;;;;;;;7.13;5.45;;;;;;;;;;5054370;28;20049;-64
2022/10/09 06:04:24;;;;;;;6.28;5.45;;;;;;;;;;5054201;28;20130;-64
2022/10/09 06:06:51;;;;;;;9.45;5.35;;;;;;;;;;5054235;28;20470;-64
2022/10/09 06:09:24;;;;;;;12.30;6.65;;;;;;;;;;5052691;28;20061;-64
2022/10/09 06:11:52;;;;;;;10.68;5.32;;;;;;;;;;5053841;28;20045;-65
2022/10/09 06:14:21;;;;;;;8.77;5.82;;;;;;;;;;5053639;28;20049;-65
2022/10/09 06:16:48;;;;;;;11.15;6.25;;;;;;;;;;5054232;28;20049;-65
2022/10/09 06:19:16;;;;;;;7.18;5.63;;;;;;;;;;5053843;28;20049;-63
2022/10/09 06:21:44;;;;;;;13.15;6.80;;;;;;;;;;5053878;28;20041;-63
2022/10/09 06:24:21;;;;;;;13.25;6.40;;;;;;;;;;5053682;28;20154;-65
2022/10/09 06:26:53;;;;;;;6.53;5.60;;;;;;;;;;5052907;28;20088;-64
2022/10/09 06:29:20;;;;;;;8.50;5.78;;;;;;;;;;5053410;28;20523;-64
2022/10/09 06:31:47;;;;;;;8.93;6.18;;;;;;;;;;5054101;28;20072;-65
2022/10/09 06:34:13;;;;;;;11.10;6.90;;;;;;;;;;5053603;28;20065;-64
2022/10/09 06:36:40;;;;;;;8.38;5.95;;;;;;;;;;5053430;28;20052;-63
2022/10/09 06:39:09;;;;;;;10.77;6.50;;;;;;;;;;5053458;28;20053;-62
2022/10/09 06:41:36;;;;;;;7.35;5.75;;;;;;;;;;5053690;28;20053;-63
2022/10/09 06:44:04;;;;;;;8.23;6.53;;;;;;;;;;5053247;28;20103;-64
2022/10/09 06:46:33;;;;;;;7.63;5.93;;;;;;;;;;5053335;28;20053;-64
2022/10/09 06:49:00;;;;;;;6.30;5.65;;;;;;;;;;5053153;28;20056;-63
2022/10/09 06:51:27;;;;;;;8.00;6.40;;;;;;;;;;5053027;28;20553;-62
2022/10/09 06:53:55;;;;;;;8.32;7.07;;;;;;;;;;5053383;28;20056;-62
2022/10/09 06:56:24;;;;;;;13.13;9.85;;;;;;;;;;5053392;28;20109;-62
2022/10/09 06:58:51;;;;;;;12.30;9.63;;;;;;;;;;5052886;28;20091;-63
2022/10/09 07:01:33;;;;;;;9.77;8.40;;;;;;;;;;5053089;28;20044;-63
2022/10/09 07:04:06;;;;;;;13.35;9.25;;;;;;;;;;5053058;28;20059;-63
2022/10/09 07:06:35;;;;;;;10.07;9.07;;;;;;;;;;5053445;28;20136;-63
2022/10/09 07:09:04;;;;;;;10.30;7.95;;;;;;;;;;5052720;28;20836;-63
2022/10/09 07:11:36;;;;;;;9.40;7.95;;;;;;;;;;5051920;28;20416;-63
2022/10/09 07:14:04;;;;;;;10.32;7.38;;;;;;;;;;5052801;28;20053;-63
2022/10/09 07:16:33;;;;;;;10.48;7.35;;;;;;;;;;5052748;28;20052;-63
2022/10/09 07:19:02;;;;;;;11.00;7.95;;;;;;;;;;5052537;28;20095;-64
2022/10/09 07:21:29;;;;;;;9.65;7.57;;;;;;;;;;5052750;28;20496;-63
2022/10/09 07:23:58;;;;;;;11.07;7.57;;;;;;;;;;5051328;28;20053;-64
2022/10/09 07:26:26;;;;;;;13.35;6.78;;;;;;;;;;5051384;28;20492;-65
2022/10/09 07:28:53;;;;;;;8.48;6.45;;;;;;;;;;5052143;28;20049;-64
2022/10/09 07:31:20;;;;;;;11.60;7.65;;;;;;;;;;5052643;28;20076;-64
2022/10/09 07:33:50;;;;;;;10.57;7.25;;;;;;;;;;5052527;28;20102;-65
2022/10/09 07:36:17;;;;;;;16.75;7.85;;;;;;;;;;5052615;28;20080;-65
2022/10/09 07:38:47;;;;;;;12.90;7.38;;;;;;;;;;5052245;28;20478;-64
2022/10/09 07:41:14;;;;;;;12.80;7.47;;;;;;;;;;5051014;28;20094;-64
2022/10/09 07:43:41;;;;;;;12.75;7.38;;;;;;;;;;5052185;28;20489;-64
2022/10/09 07:46:13;;;;;;;10.20;6.55;;;;;;;;;;5052387;28;20057;-63
2022/10/09 07:48:40;;;;;;;11.13;6.53;;;;;;;;;;5051995;28;20111;-64
2022/10/09 07:51:08;;;;;;;9.02;6.35;;;;;;;;;;5051493;28;20088;-65
2022/10/09 07:53:35;;;;;;;9.10;5.93;;;;;;;;;;5052041;28;20098;-64
2022/10/09 07:56:03;;;;;;;11.98;6.20;;;;;;;;;;5051994;28;20052;-63
2022/10/09 07:58:30;;;;;;;13.48;6.68;;;;;;;;;;5051875;28;20049;-63
2022/10/09 08:01:03;;;;;;;8.10;6.00;;;;;;;;;;5051998;28;20114;-65
2022/10/09 08:03:29;;;;;;;7.45;6.25;;;;;;;;;;5052023;28;20059;-64
2022/10/09 08:05:56;;;;;;;8.82;5.43;;;;;;;;;;5051844;28;20092;-64
2022/10/09 08:08:23;;;;;;;10.02;5.47;;;;;;;;;;5051635;28;20060;-64
2022/10/09 08:10:50;;;;;;;8.77;5.13;;;;;;;;;;5051981;28;20053;-64
2022/10/09 08:13:16;;;;;;;9.93;6.07;;;;;;;;;;5051812;28;20060;-64
2022/10/09 08:15:43;;;;;;;8.07;5.32;;;;;;;;;;5051876;28;20084;-63
2022/10/09 08:18:10;;;;;;;7.78;5.03;;;;;;;;;;5051665;28;20052;-65
2022/10/09 08:20:37;;;;;;;7.53;5.32;;;;;;;;;;5051751;28;20044;-64
2022/10/09 08:23:04;;;;;;;10.07;4.10;;;;;;;;;;5051143;28;20072;-65
2022/10/09 08:25:35;;;;;;;6.18;4.13;;;;;;;;;;5050659;28;20107;-63
2022/10/09 08:28:02;;;;;;;10.82;4.60;;;;;;;;;;5050382;28;20199;-65
2022/10/09 08:30:29;;;;;;;8.13;4.85;;;;;;;;;;5051910;28;20045;-65
2022/10/09 08:32:55;;;;;;;5.18;4.07;;;;;;;;;;5051734;28;20500;-63
2022/10/09 08:35:22;;;;;;;6.43;4.35;;;;;;;;;;5051565;28;20076;-64
2022/10/09 08:37:49;;;;;;;8.48;4.20;;;;;;;;;;5051270;28;20103;-63
2022/10/09 08:40:21;;;;;;;8.73;3.97;;;;;;;;;;5051765;28;20053;-63
2022/10/09 08:43:01;;;;;;;4.95;3.38;;;;;;;;;;5034996;28;20087;-65
2022/10/09 08:45:28;;;;;;;5.97;3.30;;;;;;;;;;5050358;28;20508;-64
2022/10/09 08:47:57;;;;;;;4.45;3.63;;;;;;;;;;5017129;28;20447;-64
2022/10/09 08:50:29;;;;;;;9.02;3.55;;;;;;;;;;5050091;28;20106;-65
2022/10/09 08:53:12;;;;;;;5.72;3.65;;;;;;;;;;5050360;28;20458;-63
2022/10/09 08:55:58;;;;;;;5.28;3.70;;;;;;;;;;5035030;28;20085;-64
2022/10/09 08:58:34;;;;;;;4.95;3.47;;;;;;;;;;5051431;28;20053;-64
2022/10/09 09:01:22;;;;;;;8.70;3.35;;;;;;;;;;5051661;28;20099;-65
2022/10/09 09:04:10;;;;;;;5.65;3.35;;;;;;;;;;5036314;28;20049;-64
2022/10/09 09:07:06;;;;;;;4.00;3.10;;;;;;;;;;5051211;28;20061;-64
2022/10/09 09:09:57;;;;;;;6.28;2.90;;;;;;;;;;5050298;28;20053;-65
2022/10/09 09:12:24;;;;;;;6.90;2.72;;;;;;;;;;5049986;28;20045;-63
2022/10/09 09:15:16;;;;;;;5.47;2.97;;;;;;;;;;5051089;28;20057;-65
2022/10/09 09:17:53;;;;;;;6.03;2.65;;;;;;;;;;5050567;28;20081;-64
2022/10/09 09:20:28;;;;;;;3.70;2.30;;;;;;;;;;5050101;28;20076;-63
2022/10/09 09:22:54;;;;;;;5.07;2.20;;;;;;;;;;5051136;28;20068;-64
2022/10/09 09:25:33;;;;;;;4.13;2.00;;;;;;;;;;5050158;28;20500;-65
2022/10/09 09:28:19;;;;;;;4.32;2.35;;;;;;;;;;5034140;28;20080;-66
2022/10/09 09:30:54;;;;;;;5.13;2.15;;;;;;;;;;5049981;28;20053;-65
2022/10/09 09:33:31;;;;;;;4.18;1.55;;;;;;;;;;5050100;28;20483;-66
2022/10/09 09:36:11;;;;;;;4.97;2.10;;;;;;;;;;5053791;28;20055;-65
2022/10/09 09:38:37;;;;;;;4.57;2.30;;;;;;;;;;5037600;28;20049;-65
2022/10/09 09:41:24;;;;;;;4.13;2.03;;;;;;;;;;5054990;28;20048;-66
2022/10/09 09:43:50;;;;;;;7.18;2.53;;;;;;;;;;5054546;28;20080;-65
2022/10/09 09:46:19;;;;;;;4.38;2.60;;;;;;;;;;5054773;28;20134;-66
2022/10/09 09:48:47;;;;;;;4.00;2.42;;;;;;;;;;5036903;28;20059;-65
2022/10/09 09:51:19;;;;;;;3.60;1.65;;;;;;;;;;5054536;28;20076;-65
2022/10/09 09:53:59;;;;;;;4.55;1.73;;;;;;;;;;5053331;28;20076;-66
2022/10/09 09:56:53;;;;;;;4.63;2.55;;;;;;;;;;5053268;28;20554;-65
2022/10/09 09:59:41;;;;;;;5.45;1.73;;;;;;;;;;5053090;28;20095;-66
2022/10/09 10:02:16;;;;;;;3.20;1.58;;;;;;;;;;5054381;28;20072;-64
2022/10/09 10:04:51;;;;;;;4.00;1.73;;;;;;;;;;5053082;28;20148;-66
2022/10/09 10:07:35;;;;;;;6.70;1.90;;;;;;;;;;5054437;28;20459;-66
2022/10/09 10:10:15;;;;;;;2.70;1.58;;;;;;;;;;5054232;28;20045;-66
2022/10/09 10:12:54;;;;;;;4.55;1.35;;;;;;;;;;5054175;28;20095;-66
2022/10/09 10:15:26;;;;;;;2.05;1.55;;;;;;;;;;5052635;28;20114;-66
2022/10/09 10:18:03;;;;;;;1.33;1.17;;;;;;;;;;5052906;28;20052;-65
2022/10/09 10:20:31;;;;;;;2.92;1.40;;;;;;;;;;5054063;28;20076;-65
2022/10/09 10:22:59;;;;;;;2.05;1.30;;;;;;;;;;5052455;28;20048;-64
2022/10/09 10:25:30;;;;;;;2.67;1.23;;;;;;;;;;5053955;28;20052;-66
2022/10/09 10:28:06;;;;;;;3.17;1.20;;;;;;;;;;5036589;28;20061;-65
2022/10/09 10:30:33;;;;;;;5.20;1.52;;;;;;;;;;5037268;28;20080;-65
2022/10/09 10:33:07;;;;;;;3.33;1.63;;;;;;;;;;5036165;28;20518;-65
2022/10/09 10:35:35;;;;;;;3.42;1.05;;;;;;;;;;5052738;28;20122;-66
2022/10/09 10:38:18;;;;;;;3.05;1.20;;;;;;;;;;5035880;28;20057;-66
2022/10/09 10:40:46;;;;;;;2.22;1.30;;;;;;;;;;5052603;28;20052;-65
2022/10/09 10:43:34;;;;;;;3.53;1.65;;;;;;;;;;5053477;28;20079;-66
2022/10/09 10:46:24;;;;;;;2.97;1.27;;;;;;;;;;5052186;28;20462;-66
2022/10/09 10:48:51;;;;;;;5.13;1.30;;;;;;;;;;5051738;28;20160;-66
2022/10/09 10:51:38;;;;;;;3.30;1.25;;;;;;;;;;5053493;28;20214;-65
2022/10/09 10:54:50;;;;;;;3.13;1.27;;;;;;;;;;5053080;28;20106;-66
2022/10/09 10:57:20;;;;;;;2.58;0.90;;;;;;;;;;5052619;28;20049;-66
2022/10/09 11:00:05;;;;;;;1.15;0.90;;;;;;;;;;5051973;28;20500;-64
2022/10/09 11:02:40;;;;;;;2.45;1.15;;;;;;;;;;5052169;28;20048;-64
2022/10/09 11:05:33;;;;;;;1.50;1.00;;;;;;;;;;5052943;28;20076;-64
2022/10/09 11:08:24;;;;;;;2.67;1.25;;;;;;;;;;5052499;28;20090;-65
2022/10/09 11:11:03;;;;;;;3.58;1.23;;;;;;;;;;5052996;28;20531;-66
2022/10/09 11:13:39;;;;;;;2.55;1.10;;;;;;;;;;5051558;28;20041;-65
2022/10/09 11:16:14;;;;;;;3.58;1.17;;;;;;;;;;5051569;28;20084;-66
2022/10/09 11:19:02;;;;;;;3.17;1.05;;;;;;;;;;5051598;28;20049;-65
2022/10/09 11:21:47;;;;;;;2.70;1.20;;;;;;;;;;5055868;28;20566;-66
2022/10/09 11:24:28;;;;;;;3.70;1.38;;;;;;;;;;5053729;28;20105;-65
2022/10/09 11:27:29;;;;;;;4.78;1.15;;;;;;;;;;5051692;28;20045;-66
2022/10/09 11:30:04;;;;;;;1.42;0.90;;;;;;;;;;5052400;28;20111;-66
2022/10/09 11:32:49;;;;;;;2.03;0.90;;;;;;;;;;5051316;28;20098;-66
2022/10/09 11:35:23;;;;;;;2.88;1.20;;;;;;;;;;5052680;28;20048;-66
2022/10/09 11:38:20;;;;;;;4.70;1.27;;;;;;;;;;5052130;28;20496;-65
2022/10/09 11:40:47;;;;;;;2.78;1.05;;;;;;;;;;5052807;28;20384;-65
2022/10/09 11:43:26;;;;;;;2.85;1.00;;;;;;;;;;5052324;28;20045;-66
2022/10/09 11:46:04;;;;;;;1.70;0.90;;;;;;;;;;5052415;28;20056;-66
2022/10/09 11:48:37;;;;;;;2.17;1.08;;;;;;;;;;5051454;28;20055;-65
2022/10/09 11:51:13;;;;;;;2.30;1.00;;;;;;;;;;5051429;28;20056;-66
2022/10/09 11:53:40;;;;;;;2.53;1.23;;;;;;;;;;5035726;28;20045;-66
2022/10/09 11:56:18;;;;;;;3.75;1.50;;;;;;;;;;5050757;28;20539;-65
2022/10/09 11:58:59;;;;;;;2.97;1.10;;;;;;;;;;5052067;28;20110;-65
2022/10/09 12:01:34;;;;;;;8.18;1.08;;;;;;;;;;5052239;28;20053;-66
2022/10/09 12:04:20;;;;;;;4.13;1.23;;;;;;;;;;5050913;28;20052;-65
2022/10/09 12:07:08;;;;;;;2.58;1.13;;;;;;;;;;5050954;28;20148;-65
2022/10/09 12:09:35;;;;;;;3.20;1.20;;;;;;;;;;5050652;28;20057;-66
2022/10/09 12:12:09;;;;;;;2.67;1.13;;;;;;;;;;5051758;28;20470;-66
2022/10/09 12:14:36;;;;;;;2.40;1.00;;;;;;;;;;5051722;28;20107;-66
2022/10/09 12:17:21;;;;;;;2.83;0.90;;;;;;;;;;5052050;28;20057;-64
2022/10/09 12:19:53;;;;;;;2.83;0.95;;;;;;;;;;5051586;28;20056;-66
2022/10/09 12:22:29;;;;;;;3.22;1.10;;;;;;;;;;5034997;28;20041;-66
2022/10/09 12:24:57;;;;;;;3.80;0.90;;;;;;;;;;5051568;28;20053;-66
2022/10/09 12:27:33;;;;;;;3.72;0.90;;;;;;;;;;5051849;28;20107;-66
2022/10/09 12:30:11;;;;;;;1.65;0.90;;;;;;;;;;5051716;28;20091;-66
2022/10/09 12:32:43;;;;;;;2.20;0.80;;;;;;;;;;5051909;28;20055;-66
2022/10/09 12:35:28;;;;;;;1.60;1.00;;;;;;;;;;5034376;28;20053;-67
2022/10/09 12:37:55;;;;;;;2.00;0.80;;;;;;;;;;5050206;28;20095;-67
2022/10/09 12:40:30;;;;;;;2.63;0.93;;;;;;;;;;5051488;28;20099;-66
2022/10/09 12:42:57;;;;;;;3.13;0.93;;;;;;;;;;5034100;28;20076;-67
2022/10/09 12:45:26;;;;;;;1.83;1.00;;;;;;;;;;5033896;28;20049;-66
2022/10/09 12:47:53;;;;;;;4.38;1.00;;;;;;;;;;5050401;28;20470;-67
2022/10/09 12:50:30;;;;;;;1.55;1.00;;;;;;;;;;5051543;28;20076;-67
2022/10/09 12:52:59;;;;;;;2.75;0.80;;;;;;;;;;5051706;28;20041;-67
2022/10/09 12:55:30;;;;;;;1.48;0.65;;;;;;;;;;5051497;28;20045;-67
2022/10/09 12:58:23;;;;;;;2.25;0.88;;;;;;;;;;5049968;28;20049;-66
2022/10/09 13:00:51;;;;;;;3.50;1.13;;;;;;;;;;5050357;28;20183;-67
2022/10/09 13:03:38;;;;;;;0.95;0.60;;;;;;;;;;5050050;28;20114;-66
2022/10/09 13:06:16;;;;;;;1.38;0.80;;;;;;;;;;5050441;28;20488;-67
2022/10/09 13:08:43;;;;;;;2.00;0.90;;;;;;;;;;5051647;28;20091;-66
2022/10/09 13:11:23;;;;;;;2.58;1.10;;;;;;;;;;5054068;28;20052;-67
2022/10/09 13:13:50;;;;;;;1.92;1.10;;;;;;;;;;5053430;28;20072;-66
2022/10/09 13:16:16;;;;;;;4.97;1.00;;;;;;;;;;5054189;28;20099;-65
2022/10/09 13:18:54;;;;;;;2.97;0.95;;;;;;;;;;5054961;28;20049;-67
2022/10/09 13:21:32;;;;;;;2.30;0.85;;;;;;;;;;5055156;28;20049;-66
2022/10/09 13:24:12;;;;;;;2.00;0.93;;;;;;;;;;5054833;28;20441;-67
2022/10/09 13:26:40;;;;;;;3.45;1.02;;;;;;;;;;5055176;28;20063;-66
2022/10/09 13:29:06;;;;;;;1.80;0.80;;;;;;;;;;5037198;28;20083;-67
2022/10/09 13:31:35;;;;;;;1.63;1.00;;;;;;;;;;5037122;28;20045;-66
2022/10/09 13:34:11;;;;;;;3.13;0.80;;;;;;;;;;5054930;28;20044;-65
2022/10/09 13:36:38;;;;;;;2.58;0.90;;;;;;;;;;5054979;28;20048;-66
2022/10/09 13:39:05;;;;;;;2.38;0.73;;;;;;;;;;5054573;28;20053;-64
2022/10/09 13:41:32;;;;;;;2.08;1.10;;;;;;;;;;5054613;28;20049;-66
2022/10/09 13:43:58;;;;;;;2.92;1.05;;;;;;;;;;5053336;28;20049;-66
2022/10/09 13:46:25;;;;;;;1.80;0.95;;;;;;;;;;5054984;28;20134;-65
2022/10/09 13:48:51;;;;;;;4.10;1.00;;;;;;;;;;5054520;28;20076;-65
2022/10/09 13:51:18;;;;;;;2.58;1.10;;;;;;;;;;5054420;28;20049;-65
2022/10/09 13:53:45;;;;;;;2.08;1.10;;;;;;;;;;5054438;28;20049;-65
2022/10/09 13:56:11;;;;;;;1.23;0.80;;;;;;;;;;5054296;28;20080;-64
2022/10/09 13:58:38;;;;;;;11.38;1.17;;;;;;;;;;5054154;28;20068;-65
2022/10/09 14:01:04;;;;;;;1.33;0.90;;;;;;;;;;5054316;28;20053;-65
2022/10/09 14:03:31;;;;;;;6.20;1.20;;;;;;;;;;5054212;28;20480;-66
2022/10/09 14:05:59;;;;;;;3.78;0.90;;;;;;;;;;5054275;28;20072;-65
2022/10/09 14:08:26;;;;;;;6.53;1.00;;;;;;;;;;5054453;28;20439;-65
2022/10/09 14:10:53;;;;;;;3.53;1.10;;;;;;;;;;5054096;28;20045;-66
2022/10/09 14:13:20;;;;;;;3.55;1.00;;;;;;;;;;5053926;28;20041;-64
2022/10/09 14:15:47;;;;;;;3.38;1.33;;;;;;;;;;5053088;28;20061;-65
2022/10/09 14:18:13;;;;;;;3.95;0.95;;;;;;;;;;5053882;28;20508;-66
2022/10/09 14:20:40;;;;;;;1.48;1.00;;;;;;;;;;5053503;28;20059;-64
2022/10/09 14:23:08;;;;;;;4.55;1.38;;;;;;;;;;5053853;28;20507;-65
2022/10/09 14:25:34;;;;;;;2.42;1.13;;;;;;;;;;5053818;28;20053;-64
2022/10/09 14:28:01;;;;;;;2.75;1.35;;;;;;;;;;5053952;28;20045;-65
2022/10/09 14:30:28;;;;;;;3.60;1.42;;;;;;;;;;5054062;28;20051;-65
2022/10/09 14:32:55;;;;;;;4.18;1.17;;;;;;;;;;5053929;28;20041;-65
2022/10/09 14:35:22;;;;;;;2.67;0.90;;;;;;;;;;5053688;28;20053;-65
2022/10/09 14:37:48;;;;;;;1.50;1.00;;;;;;;;;;5053780;28;20516;-64
2022/10/09 14:40:15;;;;;;;1.58;1.00;;;;;;;;;;5053903;28;20052;-65
2022/10/09 14:42:42;;;;;;;5.10;1.08;;;;;;;;;;5053575;28;20498;-66
2022/10/09 14:45:09;;;;;;;2.95;1.10;;;;;;;;;;5053695;28;20106;-64
2022/10/09 14:47:35;;;;;;;1.77;1.10;;;;;;;;;;5053495;28;20049;-66
2022/10/09 14:50:02;;;;;;;4.07;1.40;;;;;;;;;;5053212;28;20087;-66
2022/10/09 14:52:29;;;;;;;1.92;1.23;;;;;;;;;;5053163;28;20106;-65
2022/10/09 14:54:56;;;;;;;5.00;1.30;;;;;;;;;;5053388;28;20053;-66
2022/10/09 14:57:22;;;;;;;4.15;1.20;;;;;;;;;;5053492;28;20107;-66
2022/10/09 14:59:49;;;;;;;1.27;1.10;;;;;;;;;;5053173;28;20049;-64
2022/10/09 15:02:15;;;;;;;7.80;1.77;;;;;;;;;;5053446;28;20053;-66
2022/10/09 15:04:42;;;;;;;2.72;1.10;;;;;;;;;;5052970;28;20076;-66